Main page
METAR-TAF:

METAR-TAF

Airports :

Lisbon Airport

Lisbon, Portugal

latitude: 38-46N, longitude: 009-08W, elevation: 114 m

Current weather observation

The report was made 13 minutes ago, at 04:30 UTC
Wind 5 kt from the North
Temperature 10°C
Humidity 82%
Pressure 1025 hPa
Visibility 10 km or more
no clouds below 1500 m and no cumulonimbus

METAR: LPPT 210430Z 36005KT CAVOK 10/07 Q1025

Time: 04:43 (04:43 UTC)

Forecast

The report was made 5 hours and 43 minutes ago, at 23:00 UTC
Forecast valid from 21 at 00 UTC to 22 at 06 UTC
Wind 7 kt from the North/Northwest
Visibility 10 km or more
no clouds below 1500 m and no cumulonimbus
Becoming
from 21 at 02 UTC to 21 at 05 UTC
Wind 7 kt from the Northeast
Becoming
from 21 at 18 UTC to 21 at 21 UTC
Wind 7 kt from the North
Becoming
from 22 at 00 UTC to 22 at 03 UTC
Wind 7 kt from the Northeast

TAF: LPPT 202300Z 2100/2206 34007KT CAVOK BECMG 2102/2105 05007KT BECMG 2118/2121 35007KT BECMG 2200/2203 04007KT

Weather observations and forecasts of more than 4000 airports (METAR and TAF reports).

The available stations are represented by yellow and red dots on the map.

Hover mouse over dot to see the name of the station.

Then click to see weather observations and forecasts.

To change the map : click on the green buttons with a black cross to zoom in, on the green button with a dash to zoom out, or on the green arrows for adjacent maps.


METAR-TAF: